Time;durP1;ratioP1;P1;durP2;ratioP2;P2;SDS_P1;SDS_P2;PMS_P1;PMS_P2;Temp;Humidity;BMP_temperature;BMP_pressure;BME280_temperature;BME280_humidity;BME280_pressure;Samples;Min_cycle;Max_cycle;Signal;HPM_P1;HPM_P2
2022/02/09 00:00:20;;;;;;;1.67;0.90;;;;;;;6.65;100.00;101523.22;6074737;23;20359;-84
2022/02/09 00:06:00;;;;;;;;;;;;;;;6.63;100.00;101519.66;6068272;23;20030;-82
2022/02/09 00:08:28;;;;;;;1.50;1.00;;;;;;;6.60;100.00;101510.91;6065559;23;20013;-82
2022/02/09 00:11:03;;;;;;;1.80;0.90;;;;;;;6.62;100.00;101510.03;6072801;23;20476;-82
2022/02/09 00:13:54;;;;;;;2.40;1.50;;;;;;;6.61;100.00;101516.16;6072673;23;20022;-83
2022/02/09 00:17:00;;;;;;;1.63;1.07;;;;;;;6.61;100.00;101520.53;6078403;23;20026;-83
2022/02/09 00:19:25;;;;;;;1.90;1.00;;;;;;;6.59;100.00;101517.91;6120378;23;20476;-83
2022/02/09 00:41:01;;;;;;;;;;;;;;;6.54;100.00;101532.72;6106374;23;19921;-82
2022/02/09 01:02:48;;;;;;;2.27;1.23;;;;;;;6.58;100.00;101529.28;6103395;23;20025;-82
2022/02/09 01:11:17;;;;;;;1.67;1.20;;;;;;;6.60;100.00;101531.91;6106890;23;20108;-82
2022/02/09 01:11:36;;;;;;;2.50;1.80;;;;;;;6.69;100.00;101542.50;6085744;23;20562;-83
2022/02/09 01:42:29;;;;;;;15.00;8.53;;;;;;;7.40;100.00;101528.16;6103345;23;20014;-82
2022/02/09 01:57:49;;;;;;;18.23;10.67;;;;;;;7.57;100.00;101508.13;6126118;23;20409;-81
2022/02/09 02:00:16;;;;;;;20.80;10.63;;;;;;;7.52;100.00;101515.97;6079242;23;20030;-82
2022/02/09 02:02:42;;;;;;;19.50;10.63;;;;;;;7.57;100.00;101508.13;6102267;23;20080;-82
2022/02/09 02:05:10;;;;;;;18.73;10.43;;;;;;;7.62;100.00;101506.38;6078078;23;20032;-82
2022/02/09 02:10:08;;;;;;;17.57;10.40;;;;;;;7.69;100.00;101502.03;6125364;23;20025;-81
2022/02/09 02:13:10;;;;;;;22.53;11.60;;;;;;;7.70;100.00;101502.03;6080036;23;20029;-82
2022/02/09 02:16:02;;;;;;;17.93;10.00;;;;;;;7.74;100.00;101503.84;6106666;23;20021;-82
2022/02/09 02:18:25;;;;;;;16.97;9.70;;;;;;;7.74;100.00;101495.06;6104981;23;20056;-82
2022/02/09 03:09:18;;;;;;;24.30;13.10;;;;;;;7.90;100.00;101481.06;6104004;23;20029;-83
2022/02/09 03:14:20;;;;;;;20.97;12.50;;;;;;;7.88;100.00;101490.72;6103557;23;20396;-84
2022/02/09 03:17:02;;;;;;;20.57;12.10;;;;;;;7.86;100.00;101485.47;6081447;23;20032;-84
2022/02/09 03:22:20;;;;;;;22.17;12.77;;;;;;;7.86;100.00;101480.19;6126807;23;20341;-84
2022/02/09 03:51:35;;;;;;;18.17;9.83;;;;;;;7.87;100.00;101479.31;6103142;23;20025;-85
2022/02/09 03:57:00;;;;;;;16.57;8.80;;;;;;;7.95;100.00;101471.44;6132197;23;20069;-83
2022/02/09 03:59:31;;;;;;;15.17;8.67;;;;;;;7.93;100.00;101469.69;6080633;23;20033;-83
2022/02/09 04:02:00;;;;;;;16.93;10.13;;;;;;;7.94;100.00;101472.34;6079233;23;20024;-84
2022/02/09 04:04:28;;;;;;;15.70;9.33;;;;;;;7.94;100.00;101469.69;6101583;23;20032;-83
2022/02/09 04:06:56;;;;;;;14.57;8.97;;;;;;;7.93;100.00;101475.84;6128400;23;20032;-84
2022/02/09 04:09:28;;;;;;;15.63;9.13;;;;;;;7.94;100.00;101472.34;6102490;23;20025;-84
2022/02/09 04:14:37;;;;;;;14.00;8.73;;;;;;;7.90;100.00;101481.06;6106248;23;20032;-84
2022/02/09 04:17:19;;;;;;;13.10;8.63;;;;;;;7.92;100.00;101475.84;6105703;23;20045;-84
2022/02/09 04:20:06;;;;;;;15.03;8.27;;;;;;;7.87;100.00;101476.69;6128819;23;20068;-84
2022/02/09 04:36:08;;;;;;;15.83;9.70;;;;;;;7.92;100.00;101466.19;6107742;23;20032;-84
2022/02/09 04:39:04;;;;;;;25.03;13.10;;;;;;;7.92;100.00;101457.41;6129145;23;20076;-84
2022/02/09 04:47:03;;;;;;;21.70;12.43;;;;;;;7.92;100.00;101452.16;6129767;23;20084;-84
2022/02/09 04:55:10;;;;;;;22.70;12.83;;;;;;;7.91;100.00;101456.53;6105629;23;20326;-85
2022/02/09 04:57:50;;;;;;;24.50;14.33;;;;;;;7.89;100.00;101450.38;6107441;23;20465;-84
2022/02/09 05:00:33;;;;;;;21.67;12.67;;;;;;;7.86;100.00;101453.88;6106382;23;20025;-82
2022/02/09 05:20:40;;;;;;;22.77;13.00;;;;;;;7.79;100.00;101452.09;6105849;23;20024;-83
2022/02/09 05:22:46;;;;;;;25.10;12.63;;;;;;;7.81;100.00;101460.00;6108317;23;20072;-84
2022/02/09 05:25:41;;;;;;;22.63;13.60;;;;;;;7.83;100.00;101445.13;6103736;23;20064;-82
2022/02/09 05:28:12;;;;;;;25.03;12.53;;;;;;;7.80;100.00;101434.56;6107363;23;20029;-82
2022/02/09 05:30:40;;;;;;;22.50;13.50;;;;;;;7.82;100.00;101449.50;6079529;23;20357;-84
2022/02/09 05:33:07;;;;;;;26.63;14.13;;;;;;;7.84;100.00;101437.22;6100562;23;20029;-84
2022/02/09 05:35:34;;;;;;;22.80;13.07;;;;;;;7.82;100.00;101446.00;6078631;23;20415;-84
2022/02/09 05:38:01;;;;;;;22.13;12.50;;;;;;;7.79;100.00;101444.22;6100642;23;20033;-83
2022/02/09 05:40:29;;;;;;;20.03;12.30;;;;;;;7.79;100.00;101443.34;6076171;23;20021;-85
2022/02/09 05:42:57;;;;;;;21.90;13.10;;;;;;;7.74;100.00;101438.06;6099795;23;20879;-83
2022/02/09 05:45:29;;;;;;;23.87;14.00;;;;;;;7.79;100.00;101435.44;6077361;23;20112;-83
2022/02/09 05:48:15;;;;;;;24.67;13.17;;;;;;;7.78;100.00;101438.94;6123661;23;20036;-84
2022/02/09 05:50:55;;;;;;;25.10;14.07;;;;;;;7.76;100.00;101428.44;6104167;23;20029;-83
2022/02/09 05:53:26;;;;;;;26.53;14.30;;;;;;;7.73;100.00;101430.16;6077453;23;20014;-85
2022/02/09 05:56:20;;;;;;;25.13;15.50;;;;;;;7.72;100.00;101424.00;6077558;23;20150;-83
2022/02/09 05:59:03;;;;;;;24.65;13.30;;;;;;;7.66;100.00;101421.38;6106199;23;20104;-83
2022/02/09 06:01:30;;;;;;;25.17;14.80;;;;;;;7.74;100.00;101424.91;6081764;23;20084;-84
2022/02/09 06:03:57;;;;;;;22.30;12.80;;;;;;;7.78;100.00;101428.44;6101082;23;20025;-83
2022/02/09 06:06:23;;;;;;;30.23;14.77;;;;;;;7.70;100.00;101423.13;6103168;23;20037;-82
2022/02/09 06:08:50;;;;;;;22.40;13.57;;;;;;;7.68;100.00;101421.38;6126038;23;20028;-83
2022/02/09 06:11:26;;;;;;;24.97;14.03;;;;;;;7.68;100.00;101422.25;6078404;23;20072;-83
2022/02/09 06:21:54;;;;;;;24.83;13.70;;;;;;;7.64;100.00;101417.84;6105481;23;20037;-83
2022/02/09 06:24:23;;;;;;;24.20;12.97;;;;;;;7.66;100.00;101420.50;6099633;23;20092;-83
2022/02/09 06:26:51;;;;;;;21.20;12.13;;;;;;;7.64;100.00;101412.59;6126676;23;20088;-84
2022/02/09 06:29:22;;;;;;;25.10;13.30;;;;;;;7.62;100.00;101406.44;6076237;23;20029;-83
2022/02/09 06:31:50;;;;;;;20.30;12.27;;;;;;;7.68;100.00;101406.47;6123105;23;20092;-84
2022/02/09 06:34:19;;;;;;;22.10;14.47;;;;;;;7.69;100.00;101413.50;6098325;23;20025;-85
2022/02/09 06:36:55;;;;;;;21.37;13.90;;;;;;;7.67;100.00;101409.13;6100013;23;20037;-83
2022/02/09 06:39:21;;;;;;;21.37;12.57;;;;;;;7.60;100.00;101414.34;6124084;23;20080;-82
2022/02/09 06:41:48;;;;;;;22.80;12.83;;;;;;;7.65;100.00;101416.09;6075465;23;20026;-83
2022/02/09 06:44:15;;;;;;;20.20;11.53;;;;;;;7.59;100.00;101407.34;6100789;23;20026;-85
2022/02/09 06:46:41;;;;;;;19.80;11.80;;;;;;;7.63;100.00;101410.84;6078669;23;20026;-82
2022/02/09 06:49:09;;;;;;;20.77;12.13;;;;;;;7.71;100.00;101421.38;6100362;23;20028;-85
2022/02/09 06:51:38;;;;;;;18.67;11.83;;;;;;;7.66;100.00;101412.63;6125920;23;20025;-84
2022/02/09 06:54:13;;;;;;;18.10;11.43;;;;;;;7.61;100.00;101415.22;6100176;23;20025;-84
2022/02/09 06:59:41;;;;;;;17.97;11.63;;;;;;;7.61;100.00;101426.63;6102016;23;20029;-85
2022/02/09 07:02:07;;;;;;;17.90;9.97;;;;;;;7.64;100.00;101415.22;6105587;23;20057;-84
2022/02/09 07:04:36;;;;;;;15.37;10.60;;;;;;;7.69;100.00;101412.63;6077041;23;20342;-84
2022/02/09 07:07:06;;;;;;;19.57;10.33;;;;;;;7.68;100.00;101411.75;6101511;23;20033;-83
2022/02/09 07:09:34;;;;;;;19.13;11.65;;;;;;;7.65;100.00;101422.25;6099745;23;20036;-83
2022/02/09 07:12:03;;;;;;;18.33;11.27;;;;;;;7.66;100.00;101416.13;6101372;23;20353;-84
2022/02/09 07:14:30;;;;;;;18.10;10.53;;;;;;;7.73;100.00;101414.38;6100497;23;20028;-84
2022/02/09 07:16:57;;;;;;;15.70;10.17;;;;;;;7.72;100.00;101416.13;6077778;23;20076;-83
2022/02/09 07:19:27;;;;;;;18.20;10.17;;;;;;;7.77;100.00;101416.16;6124380;23;20504;-83
2022/02/09 07:21:54;;;;;;;13.97;9.63;;;;;;;7.76;100.00;101419.66;6101414;23;20469;-84
2022/02/09 07:24:21;;;;;;;13.93;9.67;;;;;;;7.78;100.00;101410.00;6123861;23;20068;-84
2022/02/09 07:26:50;;;;;;;14.73;9.30;;;;;;;7.76;100.00;101415.28;6101969;23;20091;-83
2022/02/09 07:29:18;;;;;;;12.53;8.63;;;;;;;7.73;100.00;101412.63;6100723;23;20353;-84
2022/02/09 07:31:46;;;;;;;13.17;9.17;;;;;;;7.77;100.00;101398.63;6102853;23;20022;-84
2022/02/09 07:34:14;;;;;;;13.13;8.77;;;;;;;7.82;100.00;101407.41;6078360;23;20076;-84
2022/02/09 07:36:45;;;;;;;13.87;8.13;;;;;;;7.84;100.00;101395.13;6079218;23;20025;-84
2022/02/09 07:39:12;;;;;;;12.63;7.50;;;;;;;7.79;100.00;101388.97;6101550;23;20028;-85
2022/02/09 07:41:42;;;;;;;12.53;7.33;;;;;;;7.74;100.00;101385.47;6102242;23;20035;-84
2022/02/09 07:47:02;;;;;;;10.60;6.93;;;;;;;7.74;100.00;101405.63;6127583;23;20030;-84
2022/02/09 07:52:22;;;;;;;10.67;6.23;;;;;;;7.80;100.00;101395.09;6118386;23;20029;-84
2022/02/09 07:54:49;;;;;;;12.23;6.03;;;;;;;7.89;100.00;101397.75;6103364;23;20021;-84
2022/02/09 07:57:16;;;;;;;10.53;7.13;;;;;;;7.96;100.00;101415.31;6102667;23;20108;-84
2022/02/09 07:59:43;;;;;;;7.30;5.77;;;;;;;7.99;100.00;101407.47;6077005;23;20074;-83
2022/02/09 08:02:09;;;;;;;12.23;6.70;;;;;;;7.95;100.00;101404.78;6102340;23;20350;-84
2022/02/09 08:04:36;;;;;;;11.60;6.93;;;;;;;7.94;100.00;101403.03;6101369;23;20032;-84
2022/02/09 08:07:03;;;;;;;9.07;5.97;;;;;;;8.00;100.00;101408.31;6127209;23;20025;-84
2022/02/09 08:09:35;;;;;;;8.80;6.15;;;;;;;8.08;100.00;101409.22;6125368;23;20025;-83
2022/02/09 08:33:44;;;;;;;8.23;4.90;;;;;;;8.33;100.00;101411.00;6126952;23;20022;-85
2022/02/09 08:36:12;;;;;;;8.07;5.30;;;;;;;8.31;100.00;101401.34;6094772;23;20040;-81
2022/02/09 08:38:42;;;;;;;6.63;4.43;;;;;;;8.41;100.00;101400.50;6077220;23;20026;-84
2022/02/09 08:41:09;;;;;;;5.75;4.43;;;;;;;8.41;100.00;101400.50;6103234;23;20025;-82
2022/02/09 08:43:37;;;;;;;6.50;4.50;;;;;;;8.56;100.00;101391.72;6101816;23;20021;-83
2022/02/09 08:46:04;;;;;;;9.18;4.45;;;;;;;8.59;100.00;101397.88;6128067;23;20096;-82
2022/02/09 08:48:31;;;;;;;6.32;4.45;;;;;;;8.64;100.00;101398.72;6079159;23;20030;-83
2022/02/09 08:50:58;;;;;;;7.25;4.30;;;;;;;8.70;100.00;101397.84;6103881;23;20022;-83
2022/02/09 08:53:25;;;;;;;6.28;4.05;;;;;;;8.69;100.00;101406.66;6077683;23;20104;-82
2022/02/09 08:55:52;;;;;;;6.18;5.00;;;;;;;8.68;100.00;101404.88;6103978;23;20045;-82
2022/02/09 08:58:20;;;;;;;8.02;4.38;;;;;;;8.67;100.00;101408.41;6101369;23;20048;-82
2022/02/09 09:00:48;;;;;;;11.27;6.95;;;;;;;8.68;100.00;101402.25;6080187;23;20029;-82
2022/02/09 09:03:20;;;;;;;7.43;4.95;;;;;;;8.62;100.00;101404.88;6103099;23;20021;-82
2022/02/09 09:05:50;;;;;;;8.77;5.82;;;;;;;8.62;100.00;101397.84;6105043;23;20028;-81
2022/02/09 10:03:17;;;;;;;5.30;4.30;;;;;;;8.62;100.00;101373.28;6102059;23;20082;-82
2022/02/09 10:34:19;;;;;;;5.18;3.65;;;;;;;9.34;99.70;101346.75;6101042;23;20018;-83
2022/02/09 10:37:01;;;;;;;6.43;3.72;;;;;;;9.28;98.44;101351.16;6106947;23;20025;-82
2022/02/09 10:42:18;;;;;;;4.75;3.50;;;;;;;9.18;97.49;101345.94;6128868;23;20032;-82
2022/02/09 10:44:52;;;;;;;4.00;3.42;;;;;;;9.12;96.39;101343.31;6080438;23;20401;-82
2022/02/09 10:47:24;;;;;;;5.07;3.60;;;;;;;9.07;97.68;101356.47;6105351;23;20031;-82
2022/02/09 10:50:07;;;;;;;4.65;3.50;;;;;;;9.10;96.77;101355.63;6127070;23;20018;-80
2022/02/09 10:52:51;;;;;;;5.00;2.95;;;;;;;9.09;98.07;101348.59;6104626;23;20400;-80
2022/02/09 10:55:38;;;;;;;6.28;5.03;;;;;;;9.03;97.39;101336.31;6081565;23;20028;-81
2022/02/09 10:58:15;;;;;;;4.90;4.43;;;;;;;9.03;97.91;101345.09;6126961;23;20037;-81
2022/02/09 11:00:44;;;;;;;4.22;3.72;;;;;;;9.05;99.07;101342.44;6080317;23;20364;-81
2022/02/09 11:03:19;;;;;;;5.40;3.10;;;;;;;9.11;100.00;101341.56;6103593;23;20057;-81
2022/02/09 11:05:49;;;;;;;5.05;3.22;;;;;;;9.16;97.50;101339.75;6105124;23;20097;-81
2022/02/09 11:08:16;;;;;;;3.83;2.88;;;;;;;9.16;98.78;101323.94;6078927;23;20457;-81
2022/02/09 11:10:44;;;;;;;4.88;3.30;;;;;;;9.27;98.12;101337.97;6104159;23;20444;-83
2022/02/09 11:13:12;;;;;;;5.10;3.63;;;;;;;9.29;97.85;101328.28;6102910;23;20453;-83
2022/02/09 11:15:49;;;;;;;5.50;3.67;;;;;;;9.32;97.59;101329.13;6104407;23;20032;-83
2022/02/09 11:18:20;;;;;;;4.63;2.97;;;;;;;9.30;95.40;101328.28;6102958;23;20025;-83
2022/02/09 11:20:57;;;;;;;6.07;3.03;;;;;;;9.37;94.12;101328.25;6080188;23;20025;-82
2022/02/09 11:23:43;;;;;;;3.40;2.60;;;;;;;9.38;95.92;101322.97;6102064;23;20108;-83
2022/02/09 11:26:45;;;;;;;4.22;2.90;;;;;;;9.42;95.47;101330.00;6104017;23;20048;-83
2022/02/09 11:32:27;;;;;;;4.20;3.17;;;;;;;9.45;93.39;101334.38;6128438;23;20056;-82
2022/02/09 11:35:04;;;;;;;5.15;3.10;;;;;;;9.49;94.06;101322.91;6121553;23;20352;-83
2022/02/09 11:40:27;;;;;;;4.95;3.08;;;;;;;9.50;90.81;101336.13;6123209;23;20045;-86
2022/02/09 11:43:04;;;;;;;5.95;2.85;;;;;;;9.50;95.21;101338.75;6097545;23;20301;-83
2022/02/09 11:45:54;;;;;;;3.38;2.50;;;;;;;9.52;92.86;101329.06;6101187;23;20032;-82
2022/02/09 11:51:21;;;;;;;4.60;2.60;;;;;;;9.51;91.49;101337.00;6122504;23;20026;-82
2022/02/09 11:57:04;;;;;;;3.80;2.63;;;;;;;9.47;91.91;101322.91;6102480;23;20041;-82
2022/02/09 12:11:42;;;;;;;3.28;2.90;;;;;;;9.24;94.03;101295.78;6083750;23;20034;-81
2022/02/09 12:19:46;;;;;;;4.03;2.80;;;;;;;9.26;90.50;101320.41;6069158;23;20028;-83
2022/02/09 12:22:21;;;;;;;3.88;2.35;;;;;;;9.22;92.16;101308.09;6101385;23;20227;-84
2022/02/09 12:24:55;;;;;;;3.17;2.40;;;;;;;9.18;93.76;101303.75;6120622;23;20042;-82
2022/02/09 12:27:22;;;;;;;3.20;2.60;;;;;;;9.16;93.60;101311.63;6074517;23;20048;-83
2022/02/09 12:30:03;;;;;;;4.47;2.08;;;;;;;9.20;92.15;101309.88;6120835;23;20030;-82
2022/02/09 12:32:32;;;;;;;2.35;2.15;;;;;;;9.23;92.74;101320.41;6098166;23;20441;-82
2022/02/09 12:34:59;;;;;;;3.72;2.30;;;;;;;9.25;91.35;101310.75;6077911;23;20065;-82
2022/02/09 12:37:29;;;;;;;2.83;2.03;;;;;;;9.28;92.86;101302.81;6103302;23;20453;-82
2022/02/09 12:39:56;;;;;;;4.35;2.17;;;;;;;9.34;92.60;101301.91;6077050;23;20021;-81
2022/02/09 12:42:29;;;;;;;5.00;2.33;;;;;;;9.41;90.90;101296.56;6103424;23;20028;-82
2022/02/09 12:44:57;;;;;;;3.25;2.10;;;;;;;9.43;90.43;101286.91;6101708;23;20492;-81
2022/02/09 12:47:31;;;;;;;5.00;2.47;;;;;;;9.43;89.98;101300.09;6104147;23;20053;-81
2022/02/09 12:49:58;;;;;;;3.20;2.10;;;;;;;9.49;91.05;101288.63;6125359;23;20370;-82
2022/02/09 12:52:29;;;;;;;4.65;2.30;;;;;;;9.55;90.08;101293.88;6103952;23;20025;-82
2022/02/09 12:55:22;;;;;;;4.75;3.15;;;;;;;9.52;88.37;101292.13;6103196;23;20028;-84
2022/02/09 12:57:58;;;;;;;5.65;3.05;;;;;;;9.59;89.00;101277.16;6126150;23;20025;-83
2022/02/09 13:00:49;;;;;;;8.50;4.30;;;;;;;9.57;88.13;101292.97;6078998;23;20356;-83
2022/02/09 13:03:21;;;;;;;8.10;3.67;;;;;;;9.63;86.48;101299.09;6125990;23;20469;-82
2022/02/09 13:05:56;;;;;;;8.52;4.90;;;;;;;9.62;88.53;101294.72;6104812;23;20028;-84
2022/02/09 13:08:28;;;;;;;12.23;5.45;;;;;;;9.61;87.99;101293.84;6102725;23;20326;-83
2022/02/09 13:13:58;;;;;;;10.52;5.50;;;;;;;9.61;88.67;101282.41;6127405;23;20025;-82
2022/02/09 13:16:39;;;;;;;5.78;3.88;;;;;;;9.62;87.62;101287.66;6083316;23;20053;-82
2022/02/09 13:20:12;;;;;;;8.25;4.97;;;;;;;9.57;90.66;101292.97;6081657;23;20032;-82
2022/02/09 13:22:36;;;;;;;6.32;3.70;;;;;;;9.68;89.53;101290.28;6094047;23;20129;-82
2022/02/09 13:54:42;;;;;;;4.75;2.72;;;;;;;9.24;94.32;101301.06;6102397;23;20077;-82
2022/02/09 14:17:02;;;;;;;3.00;2.55;;;;;;;8.96;100.00;101295.03;6071398;23;20057;-84
2022/02/09 14:47:09;;;;;;;2.67;2.35;;;;;;;8.85;100.00;101300.34;6108371;23;20381;-84
2022/02/09 14:47:38;;;;;;;3.28;2.50;;;;;;;8.54;100.00;101296.91;6111178;23;20556;-80
2022/02/09 14:50:51;;;;;;;3.25;2.58;;;;;;;8.54;100.00;101310.06;6112985;23;20021;-80
2022/02/09 14:58:11;;;;;;;3.50;3.05;;;;;;;8.50;100.00;101310.09;6135277;23;20025;-80
2022/02/09 15:08:43;;;;;;;3.45;2.80;;;;;;;8.33;100.00;101304.81;6106179;23;20107;-82
2022/02/09 15:11:24;;;;;;;4.90;3.10;;;;;;;8.39;100.00;101303.06;6088026;23;20071;-81
2022/02/09 15:19:23;;;;;;;3.05;2.75;;;;;;;8.29;100.00;101306.56;6107285;23;20049;-83
2022/02/09 15:22:05;;;;;;;4.40;2.70;;;;;;;8.35;100.00;101300.47;6127836;23;20022;-82
2022/02/09 15:24:43;;;;;;;4.18;3.35;;;;;;;8.30;100.00;101302.16;6107122;23;20041;-81
2022/02/09 15:27:13;;;;;;;3.93;3.23;;;;;;;8.31;100.00;101304.78;6106444;23;20022;-82
2022/02/09 15:29:41;;;;;;;3.83;2.90;;;;;;;8.34;100.00;101299.56;6128018;23;20072;-82
2022/02/09 15:32:18;;;;;;;5.35;3.53;;;;;;;8.28;100.00;101294.28;6106002;23;20026;-82
2022/02/09 15:34:51;;;;;;;3.63;2.88;;;;;;;8.23;100.00;101305.69;6103759;23;20021;-83
2022/02/09 15:37:29;;;;;;;4.45;3.25;;;;;;;8.26;100.00;101292.53;6128601;23;20022;-81
2022/02/09 15:40:05;;;;;;;4.55;3.10;;;;;;;8.24;100.00;101300.44;6103148;23;20025;-81
2022/02/09 16:10:30;;;;;;;4.53;3.15;;;;;;;8.27;100.00;101282.00;6071598;23;20449;-84
2022/02/09 16:16:37;;;;;;;5.22;3.88;;;;;;;8.25;100.00;101283.78;6075748;23;20105;-85
2022/02/09 16:19:30;;;;;;;3.92;2.83;;;;;;;8.30;100.00;101289.00;6072173;23;20485;-86
2022/02/09 16:21:47;;;;;;;4.18;2.90;;;;;;;8.34;100.00;101296.03;6074837;23;20022;-85
2022/02/09 16:36:24;;;;;;;6.85;2.83;;;;;;;8.40;100.00;101296.03;6097859;23;20022;-85
2022/02/09 16:38:36;;;;;;;;;;;;;;;8.41;100.00;101300.47;6077172;23;20081;-84
2022/02/09 16:46:38;;;;;;;3.60;2.95;;;;;;;8.37;100.00;101309.22;6097853;23;20097;-85
2022/02/09 16:49:12;;;;;;;3.95;3.03;;;;;;;8.41;100.00;101308.34;6092251;23;20023;-87
2022/02/09 16:51:56;;;;;;;2.80;2.55;;;;;;;8.39;100.00;101321.50;6070652;23;20077;-85
2022/02/09 17:18:49;;;;;;;3.83;3.05;;;;;;;8.40;100.00;101325.88;6072407;23;20029;-84
2022/02/09 17:21:19;;;;;;;3.92;3.20;;;;;;;8.39;100.00;101328.53;6096474;23;20026;-85
2022/02/09 17:23:47;;;;;;;3.33;2.80;;;;;;;8.33;100.00;101334.66;6047842;23;20026;-84
2022/02/09 17:26:15;;;;;;;3.72;3.08;;;;;;;8.41;100.00;101330.31;6073385;23;20511;-84
2022/02/09 17:28:46;;;;;;;4.65;3.20;;;;;;;8.45;100.00;101336.44;6096224;23;20465;-85
2022/02/09 17:31:32;;;;;;;4.00;3.28;;;;;;;8.42;100.00;101332.06;6072138;23;20092;-85
2022/02/09 17:34:12;;;;;;;5.10;3.53;;;;;;;8.39;100.00;101336.41;6075394;23;20046;-85
2022/02/09 17:37:07;;;;;;;3.97;2.97;;;;;;;8.38;100.00;101343.44;6076381;23;20022;-83
2022/02/09 17:53:26;;;;;;;5.13;3.43;;;;;;;8.43;100.00;101346.09;6075814;23;20050;-86
2022/02/09 17:56:05;;;;;;;3.83;2.88;;;;;;;8.43;100.00;101346.97;6076681;23;20057;-85
2022/02/09 17:58:39;;;;;;;4.32;3.20;;;;;;;8.41;100.00;101354.00;6051075;23;20028;-84
2022/02/09 18:01:06;;;;;;;3.75;3.15;;;;;;;8.38;100.00;101350.47;6099175;23;20082;-85
2022/02/09 18:03:33;;;;;;;4.53;2.97;;;;;;;8.31;100.00;101357.44;6098555;23;20073;-84
2022/02/09 18:06:16;;;;;;;4.43;3.40;;;;;;;8.32;100.00;101340.78;6076008;23;20109;-84
2022/02/09 18:08:52;;;;;;;3.70;3.23;;;;;;;8.30;100.00;101345.16;6078407;23;20018;-85
2022/02/09 18:11:42;;;;;;;5.70;3.03;;;;;;;8.34;100.00;101346.94;6054143;23;20321;-85
2022/02/09 18:14:21;;;;;;;4.03;2.97;;;;;;;8.30;100.00;101347.81;6079809;23;20026;-86
2022/02/09 18:25:54;;;;;;;3.88;2.88;;;;;;;8.27;100.00;101339.91;6105446;23;20022;-84
2022/02/09 18:30:56;;;;;;;3.58;2.97;;;;;;;8.30;100.00;101337.28;6077875;23;20029;-85
2022/02/09 18:44:20;;;;;;;5.63;3.47;;;;;;;8.40;100.00;101352.22;6075414;23;20028;-84
2022/02/09 18:47:25;;;;;;;3.88;3.10;;;;;;;8.34;100.00;101359.22;6103923;23;20053;-84
2022/02/09 19:03:33;;;;;;;4.47;3.33;;;;;;;8.37;100.00;101367.16;6074325;23;20576;-84
2022/02/09 19:06:12;;;;;;;4.88;3.58;;;;;;;8.41;100.00;101358.38;6051940;23;20636;-84
2022/02/09 19:14:14;;;;;;;4.95;3.90;;;;;;;8.40;100.00;101346.06;6077483;23;20033;-83
2022/02/09 19:16:55;;;;;;;5.63;4.05;;;;;;;8.39;100.00;101354.84;6055130;23;20026;-84
2022/02/09 19:19:33;;;;;;;4.80;4.10;;;;;;;8.39;100.00;101344.31;6081942;23;20032;-83
2022/02/09 19:47:28;;;;;;;7.32;4.80;;;;;;;8.30;100.00;101353.06;6075900;23;20101;-84
2022/02/09 19:50:06;;;;;;;7.18;4.63;;;;;;;8.25;100.00;101361.88;6097965;23;20030;-83
2022/02/09 19:55:36;;;;;;;6.38;4.72;;;;;;;8.34;100.00;101356.59;6095552;23;20022;-84
2022/02/09 19:58:03;;;;;;;6.47;4.85;;;;;;;8.27;100.00;101360.09;6048864;23;20497;-84
2022/02/09 20:00:33;;;;;;;7.60;6.05;;;;;;;8.33;100.00;101362.75;6095747;23;20593;-83
2022/02/09 20:03:01;;;;;;;7.53;5.53;;;;;;;8.34;100.00;101373.28;6071408;23;20033;-84
2022/02/09 20:05:27;;;;;;;7.15;5.53;;;;;;;8.32;100.00;101366.22;6072185;23;20018;-84
2022/02/09 20:07:55;;;;;;;8.40;5.70;;;;;;;8.26;100.00;101353.97;6046640;23;20858;-83
2022/02/09 20:10:23;;;;;;;9.13;6.00;;;;;;;8.25;100.00;101354.84;6072139;23;20036;-86
2022/02/09 20:12:50;;;;;;;7.82;6.03;;;;;;;8.34;100.00;101340.78;6070772;23;20025;-84
2022/02/09 20:15:17;;;;;;;8.90;6.57;;;;;;;8.33;100.00;101357.47;6072165;23;20026;-84
2022/02/09 20:17:45;;;;;;;10.17;6.70;;;;;;;8.29;100.00;101358.34;6071598;23;20022;-84
2022/02/09 20:20:20;;;;;;;8.52;6.38;;;;;;;8.30;100.00;101354.81;6049513;23;20026;-84
2022/02/09 20:22:49;;;;;;;8.25;5.80;;;;;;;8.22;100.00;101351.31;6049623;23;20021;-84
2022/02/09 20:25:18;;;;;;;9.60;6.40;;;;;;;8.16;100.00;101347.81;6048636;23;20080;-82
2022/02/09 20:27:47;;;;;;;9.65;6.80;;;;;;;8.23;100.00;101351.31;6045385;23;20469;-84
2022/02/09 20:30:17;;;;;;;10.23;6.77;;;;;;;8.25;100.00;101349.56;6046849;23;20073;-85
2022/02/09 20:32:51;;;;;;;10.15;7.20;;;;;;;8.34;100.00;101346.94;6095896;23;20017;-83
2022/02/09 20:35:20;;;;;;;9.15;6.30;;;;;;;8.30;100.00;101337.28;6073651;23;20449;-83
2022/02/09 20:37:50;;;;;;;10.80;7.72;;;;;;;8.27;100.00;101342.53;6094334;23;20022;-84
2022/02/09 20:40:22;;;;;;;8.60;6.35;;;;;;;8.22;100.00;101348.69;6048500;23;20022;-84
2022/02/09 20:43:00;;;;;;;10.37;7.40;;;;;;;8.25;100.00;101352.22;6071781;23;20053;-84
2022/02/09 20:45:36;;;;;;;10.70;6.78;;;;;;;8.22;100.00;101361.84;6071392;23;20026;-84
2022/02/09 20:48:07;;;;;;;10.68;7.30;;;;;;;8.16;100.00;101358.34;6070008;23;20029;-84
2022/02/09 20:50:35;;;;;;;11.65;7.80;;;;;;;8.21;100.00;101354.81;6071033;23;20101;-84
2022/02/09 20:53:02;;;;;;;12.75;7.53;;;;;;;8.17;100.00;101359.22;6067899;23;20029;-84
2022/02/09 20:55:30;;;;;;;11.63;8.17;;;;;;;8.09;100.00;101360.97;6072563;23;20026;-84
2022/02/09 20:57:57;;;;;;;11.57;7.30;;;;;;;8.21;100.00;101353.06;6093746;23;20030;-84
2022/02/09 21:00:41;;;;;;;10.75;7.38;;;;;;;8.18;100.00;101364.47;6048024;23;20026;-83
2022/02/09 21:08:35;;;;;;;13.05;8.50;;;;;;;8.18;100.00;101366.25;6071249;23;20371;-83
2022/02/09 21:26:53;;;;;;;14.13;8.70;;;;;;;8.21;100.00;101362.72;6096975;23;20022;-83
2022/02/09 21:56:48;;;;;;;13.10;7.60;;;;;;;8.05;100.00;101353.94;6076845;23;20048;-83
2022/02/09 21:59:55;;;;;;;12.07;7.78;;;;;;;8.07;100.00;101354.81;6049990;23;20088;-82
2022/02/09 22:16:25;;;;;;;12.27;8.52;;;;;;;8.06;100.00;101356.56;6018765;23;20095;-82
2022/02/09 22:26:49;;;;;;;11.93;8.47;;;;;;;8.06;100.00;101346.03;6072717;23;20055;-84
2022/02/09 22:32:06;;;;;;;12.40;8.35;;;;;;;8.06;100.00;101350.41;6103853;23;20022;-84
2022/02/09 22:45:27;;;;;;;13.43;8.60;;;;;;;8.06;100.00;101340.78;6051133;23;20038;-88
2022/02/09 22:56:52;;;;;;;17.90;10.20;;;;;;;7.97;100.00;101348.66;6074363;23;20029;-85
2022/02/09 23:02:01;;;;;;;13.32;8.32;;;;;;;7.97;100.00;101356.56;6098927;23;20037;-87
2022/02/09 23:10:18;;;;;;;15.13;9.93;;;;;;;7.85;100.00;101359.19;6049540;23;20026;-87
2022/02/09 23:12:55;;;;;;;17.70;11.00;;;;;;;7.83;100.00;101353.91;6093316;23;20026;-86
2022/02/09 23:15:34;;;;;;;15.77;9.87;;;;;;;7.79;100.00;101357.41;6075877;23;20060;-83
2022/02/09 23:54:06;;;;;;;16.93;9.73;;;;;;;7.50;100.00;101349.44;6100557;23;20041;-86
